sensor_id;sensor_type;location;lat;lon;timestamp;P1;durP1;ratioP1;P2;durP2;ratioP2
4307;SDS011;2167;53.448;9.984;2023-05-08T00:01:54;3.17;;;2.87;;
4307;SDS011;2167;53.448;9.984;2023-05-08T00:04:20;3.33;;;2.80;;
4307;SDS011;2167;53.448;9.984;2023-05-08T00:06:46;4.40;;;2.47;;
4307;SDS011;2167;53.448;9.984;2023-05-08T00:09:11;3.57;;;3.27;;
4307;SDS011;2167;53.448;9.984;2023-05-08T00:11:37;2.63;;;2.43;;
4307;SDS011;2167;53.448;9.984;2023-05-08T00:14:03;3.20;;;2.50;;
4307;SDS011;2167;53.448;9.984;2023-05-08T00:16:29;4.30;;;2.83;;
4307;SDS011;2167;53.448;9.984;2023-05-08T00:18:55;3.13;;;2.80;;
4307;SDS011;2167;53.448;9.984;2023-05-08T00:21:21;2.90;;;2.70;;
4307;SDS011;2167;53.448;9.984;2023-05-08T00:23:46;2.60;;;2.40;;
4307;SDS011;2167;53.448;9.984;2023-05-08T00:26:12;3.83;;;3.10;;
4307;SDS011;2167;53.448;9.984;2023-05-08T00:28:37;2.77;;;2.50;;
4307;SDS011;2167;53.448;9.984;2023-05-08T00:31:03;2.37;;;2.17;;
4307;SDS011;2167;53.448;9.984;2023-05-08T00:33:29;4.07;;;3.50;;
4307;SDS011;2167;53.448;9.984;2023-05-08T00:35:58;2.77;;;2.50;;
4307;SDS011;2167;53.448;9.984;2023-05-08T00:38:25;2.80;;;2.33;;
4307;SDS011;2167;53.448;9.984;2023-05-08T00:40:50;2.63;;;2.43;;
4307;SDS011;2167;53.448;9.984;2023-05-08T00:43:16;2.97;;;2.60;;
4307;SDS011;2167;53.448;9.984;2023-05-08T00:45:42;3.97;;;2.63;;
4307;SDS011;2167;53.448;9.984;2023-05-08T00:48:07;3.10;;;2.47;;
4307;SDS011;2167;53.448;9.984;2023-05-08T00:50:33;2.33;;;2.13;;
4307;SDS011;2167;53.448;9.984;2023-05-08T00:53:00;3.30;;;2.60;;
4307;SDS011;2167;53.448;9.984;2023-05-08T00:55:28;2.70;;;2.50;;
4307;SDS011;2167;53.448;9.984;2023-05-08T00:57:54;2.53;;;2.30;;
4307;SDS011;2167;53.448;9.984;2023-05-08T01:00:20;2.20;;;2.10;;
4307;SDS011;2167;53.448;9.984;2023-05-08T01:02:47;3.63;;;2.73;;
4307;SDS011;2167;53.448;9.984;2023-05-08T01:05:13;3.80;;;2.67;;
4307;SDS011;2167;53.448;9.984;2023-05-08T01:07:38;2.20;;;2.07;;
4307;SDS011;2167;53.448;9.984;2023-05-08T01:10:04;2.50;;;2.20;;
4307;SDS011;2167;53.448;9.984;2023-05-08T01:15:26;2.20;;;2.03;;
4307;SDS011;2167;53.448;9.984;2023-05-08T01:20:51;2.80;;;2.50;;
4307;SDS011;2167;53.448;9.984;2023-05-08T01:34:31;3.47;;;2.53;;
4307;SDS011;2167;53.448;9.984;2023-05-08T01:37:05;4.73;;;2.50;;
4307;SDS011;2167;53.448;9.984;2023-05-08T01:39:50;4.20;;;3.20;;
4307;SDS011;2167;53.448;9.984;2023-05-08T01:42:57;3.33;;;2.70;;
4307;SDS011;2167;53.448;9.984;2023-05-08T01:45:38;2.53;;;2.33;;
4307;SDS011;2167;53.448;9.984;2023-05-08T01:48:29;3.43;;;3.00;;
4307;SDS011;2167;53.448;9.984;2023-05-08T01:51:03;3.47;;;2.50;;
4307;SDS011;2167;53.448;9.984;2023-05-08T01:53:36;2.80;;;2.50;;
4307;SDS011;2167;53.448;9.984;2023-05-08T01:56:12;3.03;;;2.80;;
4307;SDS011;2167;53.448;9.984;2023-05-08T01:58:41;4.40;;;2.40;;
4307;SDS011;2167;53.448;9.984;2023-05-08T02:01:07;3.97;;;2.70;;
4307;SDS011;2167;53.448;9.984;2023-05-08T02:03:36;3.43;;;3.13;;
4307;SDS011;2167;53.448;9.984;2023-05-08T02:06:03;3.00;;;2.70;;
4307;SDS011;2167;53.448;9.984;2023-05-08T02:08:30;4.50;;;3.23;;
4307;SDS011;2167;53.448;9.984;2023-05-08T02:10:57;3.33;;;2.80;;
4307;SDS011;2167;53.448;9.984;2023-05-08T02:13:25;3.57;;;3.10;;
4307;SDS011;2167;53.448;9.984;2023-05-08T02:15:53;5.33;;;3.33;;
4307;SDS011;2167;53.448;9.984;2023-05-08T02:18:22;2.97;;;2.67;;
4307;SDS011;2167;53.448;9.984;2023-05-08T02:20:50;3.40;;;2.90;;
4307;SDS011;2167;53.448;9.984;2023-05-08T02:23:18;8.33;;;3.40;;
4307;SDS011;2167;53.448;9.984;2023-05-08T02:25:46;2.70;;;2.43;;
4307;SDS011;2167;53.448;9.984;2023-05-08T02:28:12;3.80;;;2.73;;
4307;SDS011;2167;53.448;9.984;2023-05-08T02:30:39;3.83;;;2.63;;
4307;SDS011;2167;53.448;9.984;2023-05-08T02:33:07;3.63;;;3.33;;
4307;SDS011;2167;53.448;9.984;2023-05-08T02:35:35;4.30;;;3.17;;
4307;SDS011;2167;53.448;9.984;2023-05-08T02:38:02;3.30;;;3.00;;
4307;SDS011;2167;53.448;9.984;2023-05-08T02:40:34;3.50;;;3.13;;
4307;SDS011;2167;53.448;9.984;2023-05-08T02:43:02;3.13;;;2.70;;
4307;SDS011;2167;53.448;9.984;2023-05-08T02:45:31;2.57;;;2.40;;
4307;SDS011;2167;53.448;9.984;2023-05-08T02:48:06;3.87;;;2.90;;
4307;SDS011;2167;53.448;9.984;2023-05-08T02:50:37;3.80;;;2.73;;
4307;SDS011;2167;53.448;9.984;2023-05-08T02:53:39;3.40;;;3.10;;
4307;SDS011;2167;53.448;9.984;2023-05-08T02:56:20;4.40;;;3.30;;
4307;SDS011;2167;53.448;9.984;2023-05-08T02:59:00;3.83;;;3.37;;
4307;SDS011;2167;53.448;9.984;2023-05-08T03:01:49;3.27;;;2.60;;
4307;SDS011;2167;53.448;9.984;2023-05-08T03:04:28;3.90;;;3.60;;
4307;SDS011;2167;53.448;9.984;2023-05-08T03:06:58;4.73;;;3.10;;
4307;SDS011;2167;53.448;9.984;2023-05-08T03:09:25;4.43;;;4.00;;
4307;SDS011;2167;53.448;9.984;2023-05-08T03:12:03;3.70;;;2.80;;
4307;SDS011;2167;53.448;9.984;2023-05-08T03:14:35;2.20;;;2.10;;
4307;SDS011;2167;53.448;9.984;2023-05-08T03:17:05;5.60;;;3.07;;
4307;SDS011;2167;53.448;9.984;2023-05-08T03:19:33;5.50;;;3.67;;
4307;SDS011;2167;53.448;9.984;2023-05-08T03:22:02;4.77;;;3.90;;
4307;SDS011;2167;53.448;9.984;2023-05-08T03:24:30;3.40;;;3.00;;
4307;SDS011;2167;53.448;9.984;2023-05-08T03:26:58;3.03;;;2.67;;
4307;SDS011;2167;53.448;9.984;2023-05-08T03:29:26;2.93;;;2.73;;
4307;SDS011;2167;53.448;9.984;2023-05-08T03:31:52;4.90;;;3.43;;
4307;SDS011;2167;53.448;9.984;2023-05-08T03:34:20;5.17;;;3.70;;
4307;SDS011;2167;53.448;9.984;2023-05-08T03:36:48;3.93;;;2.70;;
4307;SDS011;2167;53.448;9.984;2023-05-08T03:39:15;3.37;;;3.03;;
4307;SDS011;2167;53.448;9.984;2023-05-08T03:41:40;4.77;;;3.60;;
4307;SDS011;2167;53.448;9.984;2023-05-08T03:44:06;2.80;;;2.60;;
4307;SDS011;2167;53.448;9.984;2023-05-08T03:46:32;3.73;;;3.20;;
4307;SDS011;2167;53.448;9.984;2023-05-08T03:49:00;3.87;;;3.07;;
4307;SDS011;2167;53.448;9.984;2023-05-08T03:51:28;3.50;;;3.20;;
4307;SDS011;2167;53.448;9.984;2023-05-08T03:53:55;8.30;;;3.70;;
4307;SDS011;2167;53.448;9.984;2023-05-08T03:56:21;3.60;;;2.77;;
4307;SDS011;2167;53.448;9.984;2023-05-08T03:58:48;5.40;;;3.70;;
4307;SDS011;2167;53.448;9.984;2023-05-08T04:04:22;4.30;;;3.73;;
4307;SDS011;2167;53.448;9.984;2023-05-08T04:07:14;5.20;;;3.83;;
4307;SDS011;2167;53.448;9.984;2023-05-08T04:10:02;3.03;;;2.67;;
4307;SDS011;2167;53.448;9.984;2023-05-08T04:12:53;5.27;;;2.93;;
4307;SDS011;2167;53.448;9.984;2023-05-08T04:15:32;4.50;;;4.10;;
4307;SDS011;2167;53.448;9.984;2023-05-08T04:18:06;5.30;;;3.10;;
4307;SDS011;2167;53.448;9.984;2023-05-08T04:20:34;5.83;;;3.57;;
4307;SDS011;2167;53.448;9.984;2023-05-08T04:23:02;4.20;;;3.80;;
4307;SDS011;2167;53.448;9.984;2023-05-08T04:25:29;3.87;;;3.00;;
4307;SDS011;2167;53.448;9.984;2023-05-08T04:28:00;3.77;;;3.10;;
4307;SDS011;2167;53.448;9.984;2023-05-08T04:30:26;4.50;;;3.10;;
4307;SDS011;2167;53.448;9.984;2023-05-08T04:32:53;3.33;;;3.00;;
4307;SDS011;2167;53.448;9.984;2023-05-08T04:35:20;4.03;;;3.07;;
4307;SDS011;2167;53.448;9.984;2023-05-08T04:37:46;4.57;;;3.37;;
4307;SDS011;2167;53.448;9.984;2023-05-08T04:40:12;5.13;;;3.90;;
4307;SDS011;2167;53.448;9.984;2023-05-08T04:42:37;5.30;;;3.20;;
4307;SDS011;2167;53.448;9.984;2023-05-08T04:45:06;5.80;;;3.53;;
4307;SDS011;2167;53.448;9.984;2023-05-08T04:47:33;4.67;;;3.83;;
4307;SDS011;2167;53.448;9.984;2023-05-08T04:49:58;5.40;;;4.90;;
4307;SDS011;2167;53.448;9.984;2023-05-08T04:52:24;6.30;;;3.33;;
4307;SDS011;2167;53.448;9.984;2023-05-08T04:54:50;5.73;;;4.10;;
4307;SDS011;2167;53.448;9.984;2023-05-08T04:57:15;3.90;;;2.70;;
4307;SDS011;2167;53.448;9.984;2023-05-08T04:59:41;5.17;;;3.63;;
4307;SDS011;2167;53.448;9.984;2023-05-08T05:02:07;4.40;;;3.07;;
4307;SDS011;2167;53.448;9.984;2023-05-08T05:04:33;4.40;;;3.53;;
4307;SDS011;2167;53.448;9.984;2023-05-08T05:07:02;4.73;;;3.73;;
4307;SDS011;2167;53.448;9.984;2023-05-08T05:09:28;5.63;;;2.97;;
4307;SDS011;2167;53.448;9.984;2023-05-08T05:11:54;5.33;;;4.10;;
4307;SDS011;2167;53.448;9.984;2023-05-08T05:14:19;4.20;;;3.80;;
4307;SDS011;2167;53.448;9.984;2023-05-08T05:16:45;5.10;;;4.60;;
4307;SDS011;2167;53.448;9.984;2023-05-08T05:19:11;4.40;;;3.57;;
4307;SDS011;2167;53.448;9.984;2023-05-08T05:21:37;4.70;;;2.83;;
4307;SDS011;2167;53.448;9.984;2023-05-08T05:24:03;7.57;;;4.13;;
4307;SDS011;2167;53.448;9.984;2023-05-08T05:26:30;9.50;;;5.00;;
4307;SDS011;2167;53.448;9.984;2023-05-08T05:28:55;4.93;;;4.10;;
4307;SDS011;2167;53.448;9.984;2023-05-08T05:31:21;5.03;;;3.87;;
4307;SDS011;2167;53.448;9.984;2023-05-08T05:33:47;5.10;;;4.70;;
4307;SDS011;2167;53.448;9.984;2023-05-08T05:36:12;4.53;;;4.03;;
4307;SDS011;2167;53.448;9.984;2023-05-08T05:38:38;5.00;;;4.23;;
4307;SDS011;2167;53.448;9.984;2023-05-08T05:41:04;4.53;;;3.80;;
4307;SDS011;2167;53.448;9.984;2023-05-08T05:43:29;4.83;;;3.20;;
4307;SDS011;2167;53.448;9.984;2023-05-08T05:45:55;4.00;;;3.70;;
4307;SDS011;2167;53.448;9.984;2023-05-08T05:48:27;4.93;;;4.23;;
4307;SDS011;2167;53.448;9.984;2023-05-08T05:50:52;4.50;;;3.83;;
4307;SDS011;2167;53.448;9.984;2023-05-08T05:53:18;4.33;;;3.77;;
4307;SDS011;2167;53.448;9.984;2023-05-08T05:55:43;5.60;;;3.70;;
4307;SDS011;2167;53.448;9.984;2023-05-08T05:58:09;6.23;;;4.07;;
4307;SDS011;2167;53.448;9.984;2023-05-08T06:00:35;5.40;;;3.60;;
4307;SDS011;2167;53.448;9.984;2023-05-08T06:03:00;3.83;;;3.50;;
4307;SDS011;2167;53.448;9.984;2023-05-08T06:05:27;4.63;;;4.03;;
4307;SDS011;2167;53.448;9.984;2023-05-08T06:07:52;5.70;;;4.87;;
4307;SDS011;2167;53.448;9.984;2023-05-08T06:10:18;4.43;;;3.70;;
4307;SDS011;2167;53.448;9.984;2023-05-08T06:12:44;4.23;;;3.83;;
4307;SDS011;2167;53.448;9.984;2023-05-08T06:15:09;4.73;;;3.87;;
4307;SDS011;2167;53.448;9.984;2023-05-08T06:17:36;5.90;;;3.90;;
4307;SDS011;2167;53.448;9.984;2023-05-08T06:20:02;6.40;;;4.53;;
4307;SDS011;2167;53.448;9.984;2023-05-08T06:22:28;7.37;;;4.03;;
4307;SDS011;2167;53.448;9.984;2023-05-08T06:24:54;5.33;;;3.67;;
4307;SDS011;2167;53.448;9.984;2023-05-08T06:27:21;5.20;;;4.07;;
4307;SDS011;2167;53.448;9.984;2023-05-08T06:29:47;5.80;;;3.73;;
4307;SDS011;2167;53.448;9.984;2023-05-08T06:32:16;4.57;;;4.17;;
4307;SDS011;2167;53.448;9.984;2023-05-08T06:34:42;3.77;;;3.47;;
4307;SDS011;2167;53.448;9.984;2023-05-08T06:37:08;7.10;;;5.00;;
4307;SDS011;2167;53.448;9.984;2023-05-08T06:39:33;5.00;;;4.53;;
4307;SDS011;2167;53.448;9.984;2023-05-08T06:42:02;5.67;;;4.20;;
4307;SDS011;2167;53.448;9.984;2023-05-08T06:44:30;4.07;;;3.67;;
4307;SDS011;2167;53.448;9.984;2023-05-08T06:46:56;5.97;;;3.67;;
4307;SDS011;2167;53.448;9.984;2023-05-08T06:49:22;10.43;;;3.97;;
4307;SDS011;2167;53.448;9.984;2023-05-08T06:51:47;7.00;;;4.80;;
4307;SDS011;2167;53.448;9.984;2023-05-08T06:54:13;7.67;;;3.90;;
4307;SDS011;2167;53.448;9.984;2023-05-08T06:56:39;6.87;;;5.03;;
4307;SDS011;2167;53.448;9.984;2023-05-08T06:59:05;6.10;;;4.30;;
4307;SDS011;2167;53.448;9.984;2023-05-08T07:01:30;4.67;;;3.43;;
4307;SDS011;2167;53.448;9.984;2023-05-08T07:03:56;5.67;;;3.93;;
4307;SDS011;2167;53.448;9.984;2023-05-08T07:06:22;8.57;;;4.00;;
4307;SDS011;2167;53.448;9.984;2023-05-08T07:08:47;9.60;;;4.30;;
4307;SDS011;2167;53.448;9.984;2023-05-08T07:11:13;10.30;;;5.30;;
4307;SDS011;2167;53.448;9.984;2023-05-08T07:13:39;4.90;;;4.40;;
4307;SDS011;2167;53.448;9.984;2023-05-08T07:16:09;7.00;;;4.83;;
4307;SDS011;2167;53.448;9.984;2023-05-08T07:18:35;6.10;;;4.03;;
4307;SDS011;2167;53.448;9.984;2023-05-08T07:21:01;5.23;;;4.73;;
4307;SDS011;2167;53.448;9.984;2023-05-08T07:23:27;5.33;;;4.13;;
4307;SDS011;2167;53.448;9.984;2023-05-08T07:25:53;5.87;;;4.67;;
4307;SDS011;2167;53.448;9.984;2023-05-08T07:28:19;6.37;;;4.70;;
4307;SDS011;2167;53.448;9.984;2023-05-08T07:30:44;6.27;;;4.63;;
4307;SDS011;2167;53.448;9.984;2023-05-08T07:33:10;6.20;;;4.80;;
4307;SDS011;2167;53.448;9.984;2023-05-08T07:35:40;7.90;;;4.40;;
4307;SDS011;2167;53.448;9.984;2023-05-08T07:38:06;5.13;;;4.13;;
4307;SDS011;2167;53.448;9.984;2023-05-08T07:40:32;7.70;;;5.57;;
4307;SDS011;2167;53.448;9.984;2023-05-08T07:42:58;11.30;;;5.17;;
4307;SDS011;2167;53.448;9.984;2023-05-08T07:45:24;6.77;;;4.60;;
4307;SDS011;2167;53.448;9.984;2023-05-08T07:47:50;9.03;;;5.80;;
4307;SDS011;2167;53.448;9.984;2023-05-08T07:50:17;6.10;;;4.60;;
4307;SDS011;2167;53.448;9.984;2023-05-08T07:52:43;11.13;;;6.50;;
4307;SDS011;2167;53.448;9.984;2023-05-08T07:55:09;9.97;;;5.47;;
4307;SDS011;2167;53.448;9.984;2023-05-08T07:57:38;8.23;;;5.17;;
4307;SDS011;2167;53.448;9.984;2023-05-08T08:00:06;7.13;;;5.03;;
4307;SDS011;2167;53.448;9.984;2023-05-08T08:02:32;7.43;;;4.90;;
4307;SDS011;2167;53.448;9.984;2023-05-08T08:04:58;7.70;;;6.37;;
4307;SDS011;2167;53.448;9.984;2023-05-08T08:07:24;7.60;;;5.07;;
4307;SDS011;2167;53.448;9.984;2023-05-08T08:09:50;8.47;;;5.50;;
4307;SDS011;2167;53.448;9.984;2023-05-08T08:12:15;5.63;;;5.00;;
4307;SDS011;2167;53.448;9.984;2023-05-08T08:14:41;10.67;;;5.20;;
4307;SDS011;2167;53.448;9.984;2023-05-08T08:17:08;6.80;;;4.73;;
4307;SDS011;2167;53.448;9.984;2023-05-08T08:19:33;8.63;;;6.17;;
4307;SDS011;2167;53.448;9.984;2023-05-08T08:21:59;6.60;;;5.80;;
4307;SDS011;2167;53.448;9.984;2023-05-08T08:24:25;7.80;;;6.23;;
4307;SDS011;2167;53.448;9.984;2023-05-08T08:26:50;7.13;;;5.03;;
4307;SDS011;2167;53.448;9.984;2023-05-08T08:29:16;7.93;;;5.17;;
4307;SDS011;2167;53.448;9.984;2023-05-08T08:31:42;8.03;;;5.60;;
4307;SDS011;2167;53.448;9.984;2023-05-08T08:34:07;5.27;;;4.83;;
4307;SDS011;2167;53.448;9.984;2023-05-08T08:36:33;7.40;;;5.87;;
4307;SDS011;2167;53.448;9.984;2023-05-08T08:38:58;6.20;;;5.17;;
4307;SDS011;2167;53.448;9.984;2023-05-08T08:41:24;5.43;;;4.80;;
4307;SDS011;2167;53.448;9.984;2023-05-08T08:43:51;8.20;;;5.90;;
4307;SDS011;2167;53.448;9.984;2023-05-08T08:46:18;8.60;;;5.70;;
4307;SDS011;2167;53.448;9.984;2023-05-08T08:48:49;7.23;;;5.50;;
4307;SDS011;2167;53.448;9.984;2023-05-08T08:51:22;9.60;;;5.17;;
4307;SDS011;2167;53.448;9.984;2023-05-08T08:54:29;6.50;;;4.83;;
4307;SDS011;2167;53.448;9.984;2023-05-08T08:56:55;5.50;;;4.90;;
4307;SDS011;2167;53.448;9.984;2023-05-08T08:59:24;6.40;;;4.80;;
4307;SDS011;2167;53.448;9.984;2023-05-08T09:01:52;5.77;;;5.17;;
4307;SDS011;2167;53.448;9.984;2023-05-08T09:04:20;8.13;;;5.53;;
4307;SDS011;2167;53.448;9.984;2023-05-08T09:06:47;5.07;;;4.60;;
4307;SDS011;2167;53.448;9.984;2023-05-08T09:09:14;7.00;;;5.03;;
4307;SDS011;2167;53.448;9.984;2023-05-08T09:11:40;7.17;;;4.87;;
4307;SDS011;2167;53.448;9.984;2023-05-08T09:14:07;7.17;;;4.57;;
4307;SDS011;2167;53.448;9.984;2023-05-08T09:16:33;5.87;;;5.13;;
4307;SDS011;2167;53.448;9.984;2023-05-08T09:18:59;8.30;;;4.80;;
4307;SDS011;2167;53.448;9.984;2023-05-08T09:21:26;5.33;;;4.73;;
4307;SDS011;2167;53.448;9.984;2023-05-08T09:23:53;6.03;;;4.60;;
4307;SDS011;2167;53.448;9.984;2023-05-08T09:26:30;6.63;;;4.40;;
4307;SDS011;2167;53.448;9.984;2023-05-08T09:29:13;6.00;;;5.00;;
4307;SDS011;2167;53.448;9.984;2023-05-08T09:31:41;6.70;;;5.60;;
4307;SDS011;2167;53.448;9.984;2023-05-08T09:34:09;4.93;;;4.43;;
4307;SDS011;2167;53.448;9.984;2023-05-08T09:36:36;4.20;;;3.80;;
4307;SDS011;2167;53.448;9.984;2023-05-08T09:39:04;6.20;;;4.53;;
4307;SDS011;2167;53.448;9.984;2023-05-08T09:41:35;4.43;;;3.83;;
4307;SDS011;2167;53.448;9.984;2023-05-08T09:44:05;6.30;;;4.70;;
4307;SDS011;2167;53.448;9.984;2023-05-08T09:46:31;5.10;;;4.63;;
4307;SDS011;2167;53.448;9.984;2023-05-08T09:49:01;5.57;;;4.40;;
4307;SDS011;2167;53.448;9.984;2023-05-08T09:51:28;5.70;;;4.13;;
4307;SDS011;2167;53.448;9.984;2023-05-08T09:53:56;5.50;;;3.70;;
4307;SDS011;2167;53.448;9.984;2023-05-08T09:56:36;7.10;;;4.60;;
4307;SDS011;2167;53.448;9.984;2023-05-08T09:59:24;5.10;;;4.27;;
4307;SDS011;2167;53.448;9.984;2023-05-08T10:01:52;5.70;;;4.50;;
4307;SDS011;2167;53.448;9.984;2023-05-08T10:04:35;4.63;;;4.10;;
4307;SDS011;2167;53.448;9.984;2023-05-08T10:07:02;6.20;;;4.40;;
4307;SDS011;2167;53.448;9.984;2023-05-08T10:09:34;5.90;;;4.20;;
4307;SDS011;2167;53.448;9.984;2023-05-08T10:12:00;5.47;;;4.43;;
4307;SDS011;2167;53.448;9.984;2023-05-08T10:14:25;6.00;;;4.57;;
4307;SDS011;2167;53.448;9.984;2023-05-08T10:16:52;10.87;;;4.30;;
4307;SDS011;2167;53.448;9.984;2023-05-08T10:19:19;5.00;;;4.20;;
4307;SDS011;2167;53.448;9.984;2023-05-08T10:21:49;4.87;;;4.37;;
4307;SDS011;2167;53.448;9.984;2023-05-08T10:24:20;5.83;;;4.60;;
4307;SDS011;2167;53.448;9.984;2023-05-08T10:26:57;4.50;;;3.80;;
4307;SDS011;2167;53.448;9.984;2023-05-08T10:29:41;8.10;;;4.27;;
4307;SDS011;2167;53.448;9.984;2023-05-08T10:32:23;6.60;;;4.37;;
4307;SDS011;2167;53.448;9.984;2023-05-08T10:34:55;7.63;;;4.10;;
4307;SDS011;2167;53.448;9.984;2023-05-08T10:37:23;5.03;;;4.20;;
4307;SDS011;2167;53.448;9.984;2023-05-08T10:39:52;4.53;;;4.20;;
4307;SDS011;2167;53.448;9.984;2023-05-08T10:42:19;5.70;;;4.00;;
4307;SDS011;2167;53.448;9.984;2023-05-08T10:44:45;6.53;;;4.13;;
4307;SDS011;2167;53.448;9.984;2023-05-08T10:52:35;5.53;;;3.90;;
4307;SDS011;2167;53.448;9.984;2023-05-08T10:58:09;4.63;;;4.23;;
4307;SDS011;2167;53.448;9.984;2023-05-08T11:03:21;4.57;;;4.13;;
4307;SDS011;2167;53.448;9.984;2023-05-08T11:05:49;4.63;;;4.17;;
4307;SDS011;2167;53.448;9.984;2023-05-08T11:08:22;4.20;;;3.80;;
4307;SDS011;2167;53.448;9.984;2023-05-08T11:15:59;5.00;;;3.63;;
4307;SDS011;2167;53.448;9.984;2023-05-08T11:18:26;3.73;;;3.20;;
4307;SDS011;2167;53.448;9.984;2023-05-08T11:20:59;3.97;;;3.47;;
4307;SDS011;2167;53.448;9.984;2023-05-08T11:23:39;4.00;;;3.43;;
4307;SDS011;2167;53.448;9.984;2023-05-08T11:26:05;3.80;;;3.10;;
4307;SDS011;2167;53.448;9.984;2023-05-08T11:28:39;5.53;;;3.70;;
4307;SDS011;2167;53.448;9.984;2023-05-08T11:31:19;4.10;;;3.70;;
4307;SDS011;2167;53.448;9.984;2023-05-08T11:33:45;3.13;;;2.83;;
4307;SDS011;2167;53.448;9.984;2023-05-08T11:36:14;4.20;;;3.20;;
4307;SDS011;2167;53.448;9.984;2023-05-08T11:38:40;4.27;;;3.17;;
4307;SDS011;2167;53.448;9.984;2023-05-08T11:41:25;3.27;;;2.97;;
4307;SDS011;2167;53.448;9.984;2023-05-08T11:46:33;3.40;;;3.10;;
4307;SDS011;2167;53.448;9.984;2023-05-08T11:49:03;3.13;;;2.80;;
4307;SDS011;2167;53.448;9.984;2023-05-08T11:51:30;4.03;;;3.50;;
4307;SDS011;2167;53.448;9.984;2023-05-08T11:53:57;7.77;;;3.87;;
4307;SDS011;2167;53.448;9.984;2023-05-08T11:56:24;4.23;;;3.47;;
4307;SDS011;2167;53.448;9.984;2023-05-08T11:59:00;3.40;;;3.10;;
4307;SDS011;2167;53.448;9.984;2023-05-08T12:01:27;3.07;;;2.80;;
4307;SDS011;2167;53.448;9.984;2023-05-08T12:06:30;3.70;;;3.30;;
4307;SDS011;2167;53.448;9.984;2023-05-08T12:08:57;2.80;;;2.60;;
4307;SDS011;2167;53.448;9.984;2023-05-08T12:11:28;3.20;;;2.70;;
4307;SDS011;2167;53.448;9.984;2023-05-08T12:13:54;4.07;;;3.30;;
4307;SDS011;2167;53.448;9.984;2023-05-08T12:16:21;2.93;;;2.63;;
4307;SDS011;2167;53.448;9.984;2023-05-08T12:18:50;5.43;;;2.73;;
4307;SDS011;2167;53.448;9.984;2023-05-08T12:21:16;3.70;;;2.70;;
4307;SDS011;2167;53.448;9.984;2023-05-08T12:23:42;4.40;;;2.50;;
4307;SDS011;2167;53.448;9.984;2023-05-08T12:26:08;5.67;;;2.60;;
4307;SDS011;2167;53.448;9.984;2023-05-08T12:28:34;2.93;;;2.73;;
4307;SDS011;2167;53.448;9.984;2023-05-08T12:31:00;5.60;;;3.50;;
4307;SDS011;2167;53.448;9.984;2023-05-08T12:33:26;3.47;;;2.67;;
4307;SDS011;2167;53.448;9.984;2023-05-08T12:35:53;3.03;;;2.57;;
4307;SDS011;2167;53.448;9.984;2023-05-08T12:38:24;3.47;;;3.10;;
4307;SDS011;2167;53.448;9.984;2023-05-08T12:40:51;3.63;;;2.57;;
4307;SDS011;2167;53.448;9.984;2023-05-08T12:43:19;6.27;;;2.47;;
4307;SDS011;2167;53.448;9.984;2023-05-08T12:45:45;3.90;;;2.37;;
4307;SDS011;2167;53.448;9.984;2023-05-08T12:48:11;3.20;;;2.83;;
4307;SDS011;2167;53.448;9.984;2023-05-08T12:50:42;3.00;;;2.70;;
4307;SDS011;2167;53.448;9.984;2023-05-08T12:53:09;3.13;;;2.40;;
4307;SDS011;2167;53.448;9.984;2023-05-08T12:55:40;4.27;;;3.00;;
4307;SDS011;2167;53.448;9.984;2023-05-08T12:58:18;2.60;;;2.40;;
4307;SDS011;2167;53.448;9.984;2023-05-08T13:00:44;3.70;;;3.27;;
4307;SDS011;2167;53.448;9.984;2023-05-08T13:03:13;2.67;;;2.33;;
4307;SDS011;2167;53.448;9.984;2023-05-08T13:05:46;2.90;;;2.50;;
4307;SDS011;2167;53.448;9.984;2023-05-08T13:08:12;3.37;;;2.40;;
4307;SDS011;2167;53.448;9.984;2023-05-08T13:10:44;6.60;;;2.40;;
4307;SDS011;2167;53.448;9.984;2023-05-08T13:13:24;3.17;;;2.87;;
4307;SDS011;2167;53.448;9.984;2023-05-08T13:15:52;3.20;;;2.43;;
4307;SDS011;2167;53.448;9.984;2023-05-08T13:18:19;3.20;;;2.47;;
4307;SDS011;2167;53.448;9.984;2023-05-08T13:20:48;3.57;;;2.60;;
4307;SDS011;2167;53.448;9.984;2023-05-08T13:23:13;4.40;;;2.90;;
4307;SDS011;2167;53.448;9.984;2023-05-08T13:25:39;2.53;;;2.33;;
4307;SDS011;2167;53.448;9.984;2023-05-08T13:28:06;2.70;;;2.47;;
4307;SDS011;2167;53.448;9.984;2023-05-08T13:30:33;5.17;;;3.07;;
4307;SDS011;2167;53.448;9.984;2023-05-08T13:33:02;3.83;;;2.33;;
4307;SDS011;2167;53.448;9.984;2023-05-08T13:35:29;3.80;;;3.07;;
4307;SDS011;2167;53.448;9.984;2023-05-08T13:37:55;3.20;;;2.67;;
4307;SDS011;2167;53.448;9.984;2023-05-08T13:40:21;3.50;;;3.00;;
4307;SDS011;2167;53.448;9.984;2023-05-08T13:42:47;4.33;;;3.13;;
4307;SDS011;2167;53.448;9.984;2023-05-08T13:45:13;2.50;;;2.30;;
4307;SDS011;2167;53.448;9.984;2023-05-08T13:47:39;4.30;;;2.43;;
4307;SDS011;2167;53.448;9.984;2023-05-08T13:50:06;3.03;;;2.83;;
4307;SDS011;2167;53.448;9.984;2023-05-08T13:52:36;3.20;;;2.70;;
4307;SDS011;2167;53.448;9.984;2023-05-08T13:55:03;3.87;;;2.80;;
4307;SDS011;2167;53.448;9.984;2023-05-08T13:57:30;4.50;;;3.40;;
4307;SDS011;2167;53.448;9.984;2023-05-08T13:59:55;3.20;;;2.77;;
4307;SDS011;2167;53.448;9.984;2023-05-08T14:02:21;3.30;;;2.77;;
4307;SDS011;2167;53.448;9.984;2023-05-08T14:04:47;4.10;;;2.90;;
4307;SDS011;2167;53.448;9.984;2023-05-08T14:07:15;2.30;;;2.10;;
4307;SDS011;2167;53.448;9.984;2023-05-08T14:09:42;3.40;;;3.10;;
4307;SDS011;2167;53.448;9.984;2023-05-08T14:12:12;2.83;;;2.63;;
4307;SDS011;2167;53.448;9.984;2023-05-08T14:14:38;2.70;;;2.50;;
4307;SDS011;2167;53.448;9.984;2023-05-08T14:17:04;3.10;;;2.80;;
4307;SDS011;2167;53.448;9.984;2023-05-08T14:19:30;3.10;;;2.90;;
4307;SDS011;2167;53.448;9.984;2023-05-08T14:21:56;3.63;;;3.33;;
4307;SDS011;2167;53.448;9.984;2023-05-08T14:24:22;3.57;;;3.23;;
4307;SDS011;2167;53.448;9.984;2023-05-08T14:26:47;2.60;;;2.40;;
4307;SDS011;2167;53.448;9.984;2023-05-08T14:29:13;3.57;;;3.27;;
4307;SDS011;2167;53.448;9.984;2023-05-08T14:31:39;2.80;;;2.53;;
4307;SDS011;2167;53.448;9.984;2023-05-08T14:34:04;2.50;;;2.30;;
4307;SDS011;2167;53.448;9.984;2023-05-08T14:36:30;4.30;;;2.70;;
4307;SDS011;2167;53.448;9.984;2023-05-08T14:38:56;3.60;;;3.20;;
4307;SDS011;2167;53.448;9.984;2023-05-08T14:41:21;6.00;;;2.67;;
4307;SDS011;2167;53.448;9.984;2023-05-08T14:43:51;4.77;;;3.27;;
4307;SDS011;2167;53.448;9.984;2023-05-08T14:46:16;3.77;;;2.40;;
4307;SDS011;2167;53.448;9.984;2023-05-08T14:48:42;2.93;;;2.70;;
4307;SDS011;2167;53.448;9.984;2023-05-08T14:51:07;3.00;;;2.50;;
4307;SDS011;2167;53.448;9.984;2023-05-08T14:53:33;4.07;;;2.97;;
4307;SDS011;2167;53.448;9.984;2023-05-08T14:55:58;2.93;;;2.63;;
4307;SDS011;2167;53.448;9.984;2023-05-08T14:58:24;4.13;;;3.40;;
4307;SDS011;2167;53.448;9.984;2023-05-08T15:00:50;2.90;;;2.70;;
4307;SDS011;2167;53.448;9.984;2023-05-08T15:03:16;3.53;;;2.40;;
4307;SDS011;2167;53.448;9.984;2023-05-08T15:05:41;4.37;;;2.53;;
4307;SDS011;2167;53.448;9.984;2023-05-08T15:08:07;2.53;;;2.33;;
4307;SDS011;2167;53.448;9.984;2023-05-08T15:10:33;3.20;;;2.20;;
4307;SDS011;2167;53.448;9.984;2023-05-08T15:12:59;2.97;;;2.50;;
4307;SDS011;2167;53.448;9.984;2023-05-08T15:15:25;2.50;;;2.17;;
4307;SDS011;2167;53.448;9.984;2023-05-08T15:17:50;2.40;;;2.17;;
4307;SDS011;2167;53.448;9.984;2023-05-08T15:20:16;2.30;;;2.10;;
4307;SDS011;2167;53.448;9.984;2023-05-08T15:22:42;2.00;;;1.80;;
4307;SDS011;2167;53.448;9.984;2023-05-08T15:25:08;3.53;;;2.30;;
4307;SDS011;2167;53.448;9.984;2023-05-08T15:27:33;4.00;;;2.37;;
4307;SDS011;2167;53.448;9.984;2023-05-08T15:29:59;3.73;;;2.13;;
4307;SDS011;2167;53.448;9.984;2023-05-08T15:32:25;2.17;;;1.90;;
4307;SDS011;2167;53.448;9.984;2023-05-08T15:34:50;2.30;;;2.07;;
4307;SDS011;2167;53.448;9.984;2023-05-08T15:37:16;2.50;;;2.00;;
4307;SDS011;2167;53.448;9.984;2023-05-08T15:39:41;2.13;;;1.90;;
4307;SDS011;2167;53.448;9.984;2023-05-08T15:42:07;2.50;;;2.30;;
4307;SDS011;2167;53.448;9.984;2023-05-08T15:44:33;2.30;;;2.10;;
4307;SDS011;2167;53.448;9.984;2023-05-08T15:46:58;2.70;;;2.40;;
4307;SDS011;2167;53.448;9.984;2023-05-08T15:49:24;2.37;;;2.17;;
4307;SDS011;2167;53.448;9.984;2023-05-08T15:51:51;2.63;;;2.17;;
4307;SDS011;2167;53.448;9.984;2023-05-08T15:54:17;3.80;;;1.87;;
4307;SDS011;2167;53.448;9.984;2023-05-08T15:56:43;2.20;;;2.00;;
4307;SDS011;2167;53.448;9.984;2023-05-08T15:59:08;1.97;;;1.87;;
4307;SDS011;2167;53.448;9.984;2023-05-08T16:01:34;5.20;;;1.60;;
4307;SDS011;2167;53.448;9.984;2023-05-08T16:03:59;2.30;;;2.10;;